TimeCST,TemperatureF,Dew PointF,Humidity,Sea Level PressureIn,VisibilityMPH,Wind Direction,Wind SpeedMPH,Gust SpeedMPH,PrecipitationIn,Events,Conditions,WindDirDegrees,DateUTC
12:53 AM,66.0,64.0,93,29.81,10.0,East,3.5,-,N/A,,Partly Cloudy,80,2012-12-08 06:53:00
1:22 AM,66.2,64.4,94,29.81,8.0,ESE,4.6,-,N/A,,Mostly Cloudy,120,2012-12-08 07:22:00
1:53 AM,66.0,64.9,96,29.81,10.0,Calm,Calm,-,N/A,,Overcast,0,2012-12-08 07:53:00
2:53 AM,66.9,64.0,90,29.80,10.0,Calm,Calm,-,N/A,,Overcast,0,2012-12-08 08:53:00
3:53 AM,69.1,66.0,90,29.81,10.0,East,3.5,-,N/A,,Overcast,80,2012-12-08 09:53:00
4:06 AM,69.8,66.2,88,29.82,10.0,ENE,3.5,-,N/A,,Overcast,70,2012-12-08 10:06:00
4:22 AM,69.8,66.2,88,29.82,10.0,Calm,Calm,-,N/A,,Overcast,0,2012-12-08 10:22:00
4:53 AM,68.0,66.2,94,29.82,10.0,East,3.5,-,N/A,,Mostly Cloudy,100,2012-12-08 10:53:00
5:53 AM,69.1,66.0,90,29.82,10.0,Calm,Calm,-,N/A,,Overcast,0,2012-12-08 11:53:00
6:03 AM,69.8,66.2,88,29.83,10.0,Calm,Calm,-,N/A,,Overcast,0,2012-12-08 12:03:00
6:48 AM,69.8,66.2,88,29.84,10.0,SSE,6.9,-,0.00,Rain,Light Rain,150,2012-12-08 12:48:00
6:53 AM,70.0,66.9,90,29.84,10.0,SE,6.9,-,0.00,Rain,Light Rain,140,2012-12-08 12:53:00
7:11 AM,69.8,66.2,88,29.85,10.0,SSE,6.9,-,N/A,,Mostly Cloudy,150,2012-12-08 13:11:00
7:35 AM,69.8,66.2,88,29.85,10.0,SE,3.5,-,N/A,,Scattered Clouds,140,2012-12-08 13:35:00
7:45 AM,69.8,66.2,88,29.86,10.0,SSE,4.6,-,N/A,,Mostly Cloudy,150,2012-12-08 13:45:00
7:53 AM,70.0,66.9,90,29.86,10.0,SSE,3.5,-,N/A,,Mostly Cloudy,160,2012-12-08 13:53:00
8:45 AM,73.4,69.8,88,29.87,10.0,SSE,8.1,-,N/A,,Overcast,160,2012-12-08 14:45:00
8:53 AM,73.9,69.1,85,29.86,10.0,South,9.2,-,N/A,,Mostly Cloudy,170,2012-12-08 14:53:00
9:04 AM,73.4,69.8,88,29.87,10.0,SSE,6.9,-,N/A,,Scattered Clouds,160,2012-12-08 15:04:00
9:35 AM,75.2,69.8,83,29.88,10.0,South,9.2,-,N/A,,Mostly Cloudy,170,2012-12-08 15:35:00
9:53 AM,77.0,69.1,76,29.88,10.0,South,10.4,-,N/A,,Overcast,170,2012-12-08 15:53:00
10:53 AM,79.0,68.0,69,29.87,10.0,SSW,16.1,21.9,N/A,,Overcast,200,2012-12-08 16:53:00
11:31 AM,80.6,66.2,61,29.87,10.0,South,12.7,-,N/A,,Overcast,190,2012-12-08 17:31:00
11:53 AM,81.0,66.9,62,29.86,10.0,SSW,13.8,-,N/A,,Overcast,200,2012-12-08 17:53:00
12:53 PM,82.9,66.0,56,29.82,10.0,South,11.5,-,N/A,,Scattered Clouds,180,2012-12-08 18:53:00
1:53 PM,84.0,64.9,53,29.78,10.0,South,8.1,-,N/A,,Scattered Clouds,190,2012-12-08 19:53:00
2:53 PM,84.9,63.0,48,29.77,10.0,South,11.5,18.4,N/A,,Mostly Cloudy,180,2012-12-08 20:53:00
3:53 PM,82.4,66.2,58,29.77,10.0,SE,13.8,21.9,N/A,,Scattered Clouds,140,2012-12-08 21:53:00
4:53 PM,80.1,68.0,67,29.78,10.0,SSE,17.3,23.0,N/A,,Clear,150,2012-12-08 22:53:00
5:53 PM,77.0,66.9,71,29.79,10.0,SE,15.0,21.9,N/A,,Scattered Clouds,140,2012-12-08 23:53:00
6:53 PM,75.0,66.9,76,29.81,10.0,SE,10.4,-,N/A,,Clear,140,2012-12-09 00:53:00
7:53 PM,73.9,68.0,82,29.82,10.0,SSE,13.8,-,N/A,,Overcast,160,2012-12-09 01:53:00
8:53 PM,73.4,68.0,83,29.84,10.0,SSE,11.5,-,N/A,,Overcast,160,2012-12-09 02:53:00
9:53 PM,73.0,68.0,84,29.84,10.0,South,12.7,-,N/A,,Partly Cloudy,170,2012-12-09 03:53:00
10:53 PM,72.0,66.9,84,29.85,9.0,South,8.1,-,N/A,,Clear,170,2012-12-09 04:53:00
11:53 PM,71.1,66.9,87,29.84,9.0,South,8.1,-,N/A,,Clear,180,2012-12-09 05:53:00